Crewe, United Kingdom
Current Conditions -  °F | °C
As of 9:50 AM on Friday 31 Oct 2014 (Local Time) from EGCC Reporting Station
Few Clouds Few Clouds  
Wind Chill: 61°   Ceiling: Unl
Heat Index: 61°   Visibility: 6mi
Dew Point: 57°   Wind: 13mph
Humidity: 88%   Direction: 180°S
Pressure: 29.91"   Gusts: NA
Location:  53.1°N, 2.44°W
Report Text: EGCC 310950Z 18011KT 150V210 9000 FEW009 16/14 Q1013 BECMG 9999
Loading
Personal Weather Stations






























Interactive Weather Map
Tropical Storm Tracking
New forecast layout! Learn more

10-Day Weather Forecast

Advertisements
Track Severe Weather on mobile